sensor_id;sensor_type;location;lat;lon;timestamp;pressure;altitude;pressure_sealevel;temperature;humidity
7532;BME280;3807;49.030;8.714;2022-11-20T00:02:24;98850.72;;;8.94;74.51
7532;BME280;3807;49.030;8.714;2022-11-20T00:04:49;98850.91;;;8.90;74.83
7532;BME280;3807;49.030;8.714;2022-11-20T00:07:14;98850.91;;;8.90;74.73
7532;BME280;3807;49.030;8.714;2022-11-20T00:09:40;98848.97;;;8.96;74.40
7532;BME280;3807;49.030;8.714;2022-11-20T00:12:05;98842.22;;;8.95;74.42
7532;BME280;3807;49.030;8.714;2022-11-20T00:14:31;98842.19;;;8.97;74.33
7532;BME280;3807;49.030;8.714;2022-11-20T00:16:56;98837.50;;;8.85;74.85
7532;BME280;3807;49.030;8.714;2022-11-20T00:19:21;98838.12;;;8.91;74.68
7532;BME280;3807;49.030;8.714;2022-11-20T00:21:47;98837.22;;;8.94;74.43
7532;BME280;3807;49.030;8.714;2022-11-20T00:24:12;98840.78;;;8.88;74.67
7532;BME280;3807;49.030;8.714;2022-11-20T00:26:38;98845.09;;;8.86;74.78
7532;BME280;3807;49.030;8.714;2022-11-20T00:29:03;98848.97;;;8.96;74.42
7532;BME280;3807;49.030;8.714;2022-11-20T00:31:29;98840.75;;;8.90;74.53
7532;BME280;3807;49.030;8.714;2022-11-20T00:33:55;98839.78;;;8.92;74.49
7532;BME280;3807;49.030;8.714;2022-11-20T00:36:26;98838.84;;;8.95;74.27
7532;BME280;3807;49.030;8.714;2022-11-20T00:38:53;98845.72;;;8.93;74.36
7532;BME280;3807;49.030;8.714;2022-11-20T00:41:19;98842.44;;;8.89;74.51
7532;BME280;3807;49.030;8.714;2022-11-20T00:43:44;98845.72;;;8.93;74.33
7532;BME280;3807;49.030;8.714;2022-11-20T00:46:15;98847.66;;;8.85;74.76
7532;BME280;3807;49.030;8.714;2022-11-20T00:48:41;98846.69;;;8.89;74.61
7532;BME280;3807;49.030;8.714;2022-11-20T00:51:07;98849.13;;;8.92;74.39
7532;BME280;3807;49.030;8.714;2022-11-20T00:53:32;98853.44;;;8.90;74.47
7532;BME280;3807;49.030;8.714;2022-11-20T00:56:00;98854.19;;;8.92;74.44
7532;BME280;3807;49.030;8.714;2022-11-20T00:58:29;98859.44;;;8.87;74.68
7532;BME280;3807;49.030;8.714;2022-11-20T01:01:06;98860.88;;;8.94;74.41
7532;BME280;3807;49.030;8.714;2022-11-20T01:03:37;98853.19;;;8.96;74.35
7532;BME280;3807;49.030;8.714;2022-11-20T01:06:05;98853.47;;;8.88;74.53
7532;BME280;3807;49.030;8.714;2022-11-20T01:08:34;98856.91;;;8.87;74.65
7532;BME280;3807;49.030;8.714;2022-11-20T01:11:01;98856.00;;;8.88;74.50
7532;BME280;3807;49.030;8.714;2022-11-20T01:13:27;98844.41;;;8.81;74.68
7532;BME280;3807;49.030;8.714;2022-11-20T01:16:14;98856.81;;;8.90;74.56
7532;BME280;3807;49.030;8.714;2022-11-20T01:18:41;98851.81;;;8.87;74.57
7532;BME280;3807;49.030;8.714;2022-11-20T01:21:10;98851.00;;;8.87;74.53
7532;BME280;3807;49.030;8.714;2022-11-20T01:23:38;98857.81;;;8.85;74.65
7532;BME280;3807;49.030;8.714;2022-11-20T01:26:06;98851.72;;;8.90;74.51
7532;BME280;3807;49.030;8.714;2022-11-20T01:28:32;98851.09;;;8.83;74.70
7532;BME280;3807;49.030;8.714;2022-11-20T01:30:58;98843.28;;;8.90;74.53
7532;BME280;3807;49.030;8.714;2022-11-20T01:33:24;98853.81;;;8.79;74.81
7532;BME280;3807;49.030;8.714;2022-11-20T01:35:50;98848.75;;;8.77;75.07
7532;BME280;3807;49.030;8.714;2022-11-20T01:38:16;98852.75;;;8.85;74.66
7532;BME280;3807;49.030;8.714;2022-11-20T01:40:41;98841.50;;;8.67;75.53
7532;BME280;3807;49.030;8.714;2022-11-20T01:43:19;98843.66;;;8.52;76.36
7532;BME280;3807;49.030;8.714;2022-11-20T01:45:56;98847.12;;;8.50;76.43
7532;BME280;3807;49.030;8.714;2022-11-20T01:48:26;98840.91;;;8.32;77.53
7532;BME280;3807;49.030;8.714;2022-11-20T01:50:52;98847.53;;;8.38;77.49
7532;BME280;3807;49.030;8.714;2022-11-20T01:53:21;98846.12;;;8.55;76.50
7532;BME280;3807;49.030;8.714;2022-11-20T01:55:51;98844.72;;;8.19;78.44
7532;BME280;3807;49.030;8.714;2022-11-20T01:58:20;98838.00;;;8.18;78.24
7532;BME280;3807;49.030;8.714;2022-11-20T02:00:46;98845.00;;;8.09;79.75
7532;BME280;3807;49.030;8.714;2022-11-20T02:03:15;98840.16;;;8.30;78.27
7532;BME280;3807;49.030;8.714;2022-11-20T02:05:46;98836.53;;;8.37;78.19
7532;BME280;3807;49.030;8.714;2022-11-20T02:08:15;98832.44;;;8.06;79.51
7532;BME280;3807;49.030;8.714;2022-11-20T02:10:40;98823.69;;;8.15;79.62
7532;BME280;3807;49.030;8.714;2022-11-20T02:13:06;98830.31;;;8.19;79.06
7532;BME280;3807;49.030;8.714;2022-11-20T02:15:50;98830.03;;;8.28;79.12
7532;BME280;3807;49.030;8.714;2022-11-20T02:18:17;98828.41;;;8.26;79.38
7532;BME280;3807;49.030;8.714;2022-11-20T02:20:46;98836.00;;;8.27;79.00
7532;BME280;3807;49.030;8.714;2022-11-20T02:23:16;98835.94;;;8.29;79.19
7532;BME280;3807;49.030;8.714;2022-11-20T02:25:45;98829.03;;;8.34;78.84
7532;BME280;3807;49.030;8.714;2022-11-20T02:28:12;98830.59;;;8.36;79.33
7532;BME280;3807;49.030;8.714;2022-11-20T02:30:37;98831.50;;;8.09;80.71
7532;BME280;3807;49.030;8.714;2022-11-20T02:33:03;98829.41;;;8.22;79.94
7532;BME280;3807;49.030;8.714;2022-11-20T02:37:56;98834.87;;;8.09;80.36
7532;BME280;3807;49.030;8.714;2022-11-20T02:40:21;98830.03;;;8.28;79.62
7532;BME280;3807;49.030;8.714;2022-11-20T02:42:48;98832.53;;;8.30;79.61
7532;BME280;3807;49.030;8.714;2022-11-20T02:45:16;98828.78;;;8.42;78.57
7532;BME280;3807;49.030;8.714;2022-11-20T02:47:41;98823.00;;;8.36;78.78
7532;BME280;3807;49.030;8.714;2022-11-20T02:50:07;98821.28;;;8.39;78.94
7532;BME280;3807;49.030;8.714;2022-11-20T02:52:33;98826.66;;;8.28;79.56
7532;BME280;3807;49.030;8.714;2022-11-20T02:54:58;98832.25;;;8.39;79.17
7532;BME280;3807;49.030;8.714;2022-11-20T02:57:23;98822.00;;;8.42;78.68
7532;BME280;3807;49.030;8.714;2022-11-20T02:59:49;98821.34;;;8.35;79.22
7532;BME280;3807;49.030;8.714;2022-11-20T03:02:14;98818.66;;;8.42;78.96
7532;BME280;3807;49.030;8.714;2022-11-20T03:04:39;98820.63;;;8.32;79.71
7532;BME280;3807;49.030;8.714;2022-11-20T03:07:05;98821.09;;;8.70;77.48
7532;BME280;3807;49.030;8.714;2022-11-20T03:09:30;98824.63;;;8.41;79.22
7532;BME280;3807;49.030;8.714;2022-11-20T03:11:56;98815.50;;;8.33;79.59
7532;BME280;3807;49.030;8.714;2022-11-20T03:14:21;98814.78;;;8.03;81.05
7532;BME280;3807;49.030;8.714;2022-11-20T03:16:46;98809.00;;;8.25;80.04
7532;BME280;3807;49.030;8.714;2022-11-20T03:19:12;98813.09;;;8.29;79.81
7532;BME280;3807;49.030;8.714;2022-11-20T03:21:38;98807.47;;;8.21;80.04
7532;BME280;3807;49.030;8.714;2022-11-20T03:24:03;98804.94;;;8.19;79.89
7532;BME280;3807;49.030;8.714;2022-11-20T03:26:29;98815.00;;;8.22;79.86
7532;BME280;3807;49.030;8.714;2022-11-20T03:28:56;98808.91;;;8.01;80.93
7532;BME280;3807;49.030;8.714;2022-11-20T03:31:25;98806.19;;;8.07;80.94
7532;BME280;3807;49.030;8.714;2022-11-20T03:33:51;98807.66;;;8.15;80.43
7532;BME280;3807;49.030;8.714;2022-11-20T03:36:17;98801.69;;;8.16;80.41
7532;BME280;3807;49.030;8.714;2022-11-20T03:38:43;98809.00;;;8.25;80.10
7532;BME280;3807;49.030;8.714;2022-11-20T03:41:15;98804.25;;;8.42;79.12
7532;BME280;3807;49.030;8.714;2022-11-20T03:43:47;98807.41;;;8.22;80.30
7532;BME280;3807;49.030;8.714;2022-11-20T03:46:12;98804.84;;;8.22;80.04
7532;BME280;3807;49.030;8.714;2022-11-20T03:48:40;98815.44;;;8.35;79.29
7532;BME280;3807;49.030;8.714;2022-11-20T03:51:35;98806.47;;;8.25;79.51
7532;BME280;3807;49.030;8.714;2022-11-20T03:54:03;98803.28;;;8.20;80.20
7532;BME280;3807;49.030;8.714;2022-11-20T03:56:32;98809.56;;;8.34;79.42
7532;BME280;3807;49.030;8.714;2022-11-20T03:58:58;98802.66;;;8.11;80.56
7532;BME280;3807;49.030;8.714;2022-11-20T04:01:26;98805.16;;;8.13;80.73
7532;BME280;3807;49.030;8.714;2022-11-20T04:03:54;98801.25;;;8.29;79.75
7532;BME280;3807;49.030;8.714;2022-11-20T04:06:22;98803.56;;;8.37;79.38
7532;BME280;3807;49.030;8.714;2022-11-20T04:08:48;98802.50;;;8.44;79.08
7532;BME280;3807;49.030;8.714;2022-11-20T04:11:20;98798.94;;;8.23;80.19
7532;BME280;3807;49.030;8.714;2022-11-20T04:13:51;98805.91;;;8.43;78.75
7532;BME280;3807;49.030;8.714;2022-11-20T04:16:18;98810.38;;;8.35;79.48
7532;BME280;3807;49.030;8.714;2022-11-20T04:18:43;98799.03;;;8.20;79.84
7532;BME280;3807;49.030;8.714;2022-11-20T04:21:09;98795.53;;;8.23;79.60
7532;BME280;3807;49.030;8.714;2022-11-20T04:23:35;98793.75;;;8.26;79.57
7532;BME280;3807;49.030;8.714;2022-11-20T04:26:06;98799.44;;;8.33;79.54
7532;BME280;3807;49.030;8.714;2022-11-20T04:28:31;98790.25;;;8.30;79.39
7532;BME280;3807;49.030;8.714;2022-11-20T04:31:11;98794.53;;;8.55;78.52
7532;BME280;3807;49.030;8.714;2022-11-20T04:33:38;98795.97;;;8.35;79.17
7532;BME280;3807;49.030;8.714;2022-11-20T04:36:05;98792.91;;;8.52;78.49
7532;BME280;3807;49.030;8.714;2022-11-20T04:38:32;98784.34;;;8.03;80.51
7532;BME280;3807;49.030;8.714;2022-11-20T04:41:02;98786.81;;;8.31;79.35
7532;BME280;3807;49.030;8.714;2022-11-20T04:43:28;98785.28;;;8.26;79.57
7532;BME280;3807;49.030;8.714;2022-11-20T04:45:55;98783.25;;;8.37;79.33
7532;BME280;3807;49.030;8.714;2022-11-20T04:48:22;98776.97;;;8.22;79.72
7532;BME280;3807;49.030;8.714;2022-11-20T04:50:47;98780.44;;;8.20;79.83
7532;BME280;3807;49.030;8.714;2022-11-20T04:53:13;98775.75;;;8.07;80.30
7532;BME280;3807;49.030;8.714;2022-11-20T04:55:39;98780.91;;;8.04;80.47
7532;BME280;3807;49.030;8.714;2022-11-20T04:58:04;98778.50;;;7.73;81.76
7532;BME280;3807;49.030;8.714;2022-11-20T05:00:30;98774.22;;;8.28;79.76
7532;BME280;3807;49.030;8.714;2022-11-20T05:02:55;98782.53;;;8.07;80.30
7532;BME280;3807;49.030;8.714;2022-11-20T05:05:20;98787.44;;;8.11;80.43
7532;BME280;3807;49.030;8.714;2022-11-20T05:07:46;98777.94;;;8.18;80.10
7532;BME280;3807;49.030;8.714;2022-11-20T05:10:11;98784.62;;;8.21;79.87
7532;BME280;3807;49.030;8.714;2022-11-20T05:12:36;98782.19;;;8.18;80.07
7532;BME280;3807;49.030;8.714;2022-11-20T05:15:02;98786.38;;;8.19;80.03
7532;BME280;3807;49.030;8.714;2022-11-20T05:17:27;98778.09;;;8.40;78.97
7532;BME280;3807;49.030;8.714;2022-11-20T05:19:53;98776.28;;;8.44;79.08
7532;BME280;3807;49.030;8.714;2022-11-20T05:22:18;98775.59;;;7.85;81.32
7532;BME280;3807;49.030;8.714;2022-11-20T05:24:43;98769.72;;;8.36;79.40
7532;BME280;3807;49.030;8.714;2022-11-20T05:27:09;98782.91;;;8.21;79.71
7532;BME280;3807;49.030;8.714;2022-11-20T05:29:34;98781.56;;;8.63;78.25
7532;BME280;3807;49.030;8.714;2022-11-20T05:31:59;98779.59;;;8.71;77.55
7532;BME280;3807;49.030;8.714;2022-11-20T05:34:25;98776.28;;;8.44;78.75
7532;BME280;3807;49.030;8.714;2022-11-20T05:36:50;98771.00;;;8.50;78.55
7532;BME280;3807;49.030;8.714;2022-11-20T05:39:15;98780.28;;;8.24;79.24
7532;BME280;3807;49.030;8.714;2022-11-20T05:41:41;98781.41;;;8.42;78.76
7532;BME280;3807;49.030;8.714;2022-11-20T05:44:06;98780.22;;;8.52;78.42
7532;BME280;3807;49.030;8.714;2022-11-20T05:46:31;98780.91;;;8.31;78.94
7532;BME280;3807;49.030;8.714;2022-11-20T05:48:57;98779.59;;;8.19;79.78
7532;BME280;3807;49.030;8.714;2022-11-20T05:51:23;98776.38;;;8.14;79.85
7532;BME280;3807;49.030;8.714;2022-11-20T05:53:49;98770.06;;;8.26;79.58
7532;BME280;3807;49.030;8.714;2022-11-20T05:56:17;98764.88;;;8.04;80.40
7532;BME280;3807;49.030;8.714;2022-11-20T05:58:43;98771.25;;;8.16;80.00
7532;BME280;3807;49.030;8.714;2022-11-20T06:01:20;98759.84;;;8.29;79.16
7532;BME280;3807;49.030;8.714;2022-11-20T06:03:46;98763.16;;;8.31;79.28
7532;BME280;3807;49.030;8.714;2022-11-20T06:06:13;98771.44;;;8.38;79.21
7532;BME280;3807;49.030;8.714;2022-11-20T06:08:39;98773.72;;;8.45;78.66
7532;BME280;3807;49.030;8.714;2022-11-20T06:11:09;98776.03;;;8.51;78.19
7532;BME280;3807;49.030;8.714;2022-11-20T06:13:35;98773.53;;;8.50;78.47
7532;BME280;3807;49.030;8.714;2022-11-20T06:16:00;98777.19;;;8.16;79.52
7532;BME280;3807;49.030;8.714;2022-11-20T06:18:28;98779.03;;;8.36;78.71
7532;BME280;3807;49.030;8.714;2022-11-20T06:21:06;98777.47;;;8.33;79.07
7532;BME280;3807;49.030;8.714;2022-11-20T06:23:33;98773.25;;;8.59;78.37
7532;BME280;3807;49.030;8.714;2022-11-20T06:26:03;98779.19;;;8.06;80.14
7532;BME280;3807;49.030;8.714;2022-11-20T06:28:29;98776.94;;;8.24;79.56
7532;BME280;3807;49.030;8.714;2022-11-20T06:30:55;98773.09;;;8.37;79.37
7532;BME280;3807;49.030;8.714;2022-11-20T06:33:20;98769.06;;;8.31;79.48
7532;BME280;3807;49.030;8.714;2022-11-20T06:35:45;98777.41;;;8.08;80.26
7532;BME280;3807;49.030;8.714;2022-11-20T06:38:13;98757.59;;;8.46;78.86
7532;BME280;3807;49.030;8.714;2022-11-20T06:40:42;98765.22;;;8.46;78.99
7532;BME280;3807;49.030;8.714;2022-11-20T06:43:09;98771.00;;;8.50;78.55
7532;BME280;3807;49.030;8.714;2022-11-20T06:45:35;98774.37;;;8.24;79.75
7532;BME280;3807;49.030;8.714;2022-11-20T06:48:01;98780.19;;;8.27;79.56
7532;BME280;3807;49.030;8.714;2022-11-20T06:50:26;98782.66;;;8.29;79.37
7532;BME280;3807;49.030;8.714;2022-11-20T06:52:51;98783.91;;;8.17;79.95
7532;BME280;3807;49.030;8.714;2022-11-20T06:55:17;98791.66;;;8.39;79.91
7532;BME280;3807;49.030;8.714;2022-11-20T06:57:45;98788.72;;;8.25;80.29
7532;BME280;3807;49.030;8.714;2022-11-20T07:00:12;98788.38;;;8.35;79.75
7532;BME280;3807;49.030;8.714;2022-11-20T07:02:37;98788.25;;;8.14;80.60
7532;BME280;3807;49.030;8.714;2022-11-20T07:05:03;98788.47;;;8.32;80.16
7532;BME280;3807;49.030;8.714;2022-11-20T07:07:28;98792.41;;;8.16;80.49
7532;BME280;3807;49.030;8.714;2022-11-20T07:09:54;98799.88;;;8.47;79.45
7532;BME280;3807;49.030;8.714;2022-11-20T07:12:27;98801.97;;;8.59;78.79
7532;BME280;3807;49.030;8.714;2022-11-20T07:14:52;98801.06;;;8.35;79.61
7532;BME280;3807;49.030;8.714;2022-11-20T07:17:17;98805.13;;;8.41;79.68
7532;BME280;3807;49.030;8.714;2022-11-20T07:19:43;98799.75;;;8.75;78.02
7532;BME280;3807;49.030;8.714;2022-11-20T07:22:08;98803.06;;;8.77;77.75
7532;BME280;3807;49.030;8.714;2022-11-20T07:24:34;98808.91;;;8.28;79.76
7532;BME280;3807;49.030;8.714;2022-11-20T07:27:00;98814.97;;;8.50;79.22
7532;BME280;3807;49.030;8.714;2022-11-20T07:29:25;98811.75;;;8.45;79.35
7532;BME280;3807;49.030;8.714;2022-11-20T07:31:50;98814.97;;;8.50;79.25
7532;BME280;3807;49.030;8.714;2022-11-20T07:34:16;98820.03;;;8.50;79.04
7532;BME280;3807;49.030;8.714;2022-11-20T07:36:41;98809.25;;;8.44;78.95
7532;BME280;3807;49.030;8.714;2022-11-20T07:39:06;98812.66;;;8.44;79.33
7532;BME280;3807;49.030;8.714;2022-11-20T07:41:32;98811.16;;;8.37;79.74
7532;BME280;3807;49.030;8.714;2022-11-20T07:43:58;98815.12;;;8.46;79.19
7532;BME280;3807;49.030;8.714;2022-11-20T07:46:23;98804.94;;;8.47;78.93
7532;BME280;3807;49.030;8.714;2022-11-20T07:48:48;98812.91;;;8.62;78.91
7532;BME280;3807;49.030;8.714;2022-11-20T07:51:14;98804.94;;;8.47;78.82
7532;BME280;3807;49.030;8.714;2022-11-20T07:53:39;98824.12;;;8.28;80.17
7532;BME280;3807;49.030;8.714;2022-11-20T07:56:05;98816.91;;;8.16;80.48
7532;BME280;3807;49.030;8.714;2022-11-20T07:58:31;98817.16;;;8.08;81.17
7532;BME280;3807;49.030;8.714;2022-11-20T08:01:02;98821.00;;;8.48;80.15
7532;BME280;3807;49.030;8.714;2022-11-20T08:03:27;98830.00;;;8.30;81.75
7532;BME280;3807;49.030;8.714;2022-11-20T08:05:52;98828.84;;;8.40;80.78
7532;BME280;3807;49.030;8.714;2022-11-20T08:08:18;98835.44;;;8.46;80.84
7532;BME280;3807;49.030;8.714;2022-11-20T08:10:43;98833.59;;;8.51;80.23
7532;BME280;3807;49.030;8.714;2022-11-20T08:13:08;98836.97;;;8.23;81.79
7532;BME280;3807;49.030;8.714;2022-11-20T08:15:52;98838.78;;;8.20;82.56
7532;BME280;3807;49.030;8.714;2022-11-20T08:18:18;98844.97;;;8.64;79.84
7532;BME280;3807;49.030;8.714;2022-11-20T08:20:43;98849.63;;;8.51;80.67
7532;BME280;3807;49.030;8.714;2022-11-20T08:23:09;98847.00;;;8.54;80.56
7532;BME280;3807;49.030;8.714;2022-11-20T08:25:36;98849.13;;;8.40;82.01
7532;BME280;3807;49.030;8.714;2022-11-20T08:28:05;98839.09;;;8.35;81.64
7532;BME280;3807;49.030;8.714;2022-11-20T08:30:31;98839.97;;;8.61;80.99
7532;BME280;3807;49.030;8.714;2022-11-20T08:33:04;98844.25;;;8.34;81.97
7532;BME280;3807;49.030;8.714;2022-11-20T08:35:37;98856.25;;;8.55;80.78
7532;BME280;3807;49.030;8.714;2022-11-20T08:38:04;98843.47;;;8.58;80.56
7532;BME280;3807;49.030;8.714;2022-11-20T08:40:30;98854.16;;;8.68;80.25
7532;BME280;3807;49.030;8.714;2022-11-20T08:42:56;98850.75;;;8.43;82.08
7532;BME280;3807;49.030;8.714;2022-11-20T08:45:21;98845.22;;;8.56;81.14
7532;BME280;3807;49.030;8.714;2022-11-20T08:47:47;98858.16;;;8.49;81.44
7532;BME280;3807;49.030;8.714;2022-11-20T08:50:16;98854.66;;;8.53;81.42
7532;BME280;3807;49.030;8.714;2022-11-20T08:52:42;98855.19;;;8.63;81.02
7532;BME280;3807;49.030;8.714;2022-11-20T08:55:08;98870.50;;;8.59;81.66
7532;BME280;3807;49.030;8.714;2022-11-20T08:57:34;98871.19;;;8.38;81.69
7532;BME280;3807;49.030;8.714;2022-11-20T09:00:00;98865.53;;;8.30;82.54
7532;BME280;3807;49.030;8.714;2022-11-20T09:02:26;98865.56;;;8.28;83.21
7532;BME280;3807;49.030;8.714;2022-11-20T09:04:51;98867.31;;;8.26;82.89
7532;BME280;3807;49.030;8.714;2022-11-20T09:07:18;98871.53;;;8.54;81.82
7532;BME280;3807;49.030;8.714;2022-11-20T09:09:44;98872.09;;;8.35;82.58
7532;BME280;3807;49.030;8.714;2022-11-20T09:12:09;98868.22;;;8.52;81.62
7532;BME280;3807;49.030;8.714;2022-11-20T09:14:34;98874.59;;;8.37;82.85
7532;BME280;3807;49.030;8.714;2022-11-20T09:17:00;98867.31;;;8.26;83.92
7532;BME280;3807;49.030;8.714;2022-11-20T09:19:25;98863.25;;;8.21;84.29
7532;BME280;3807;49.030;8.714;2022-11-20T09:21:51;98870.31;;;8.11;84.25
7532;BME280;3807;49.030;8.714;2022-11-20T09:24:17;98863.03;;;8.00;84.80
7532;BME280;3807;49.030;8.714;2022-11-20T09:26:42;98880.63;;;8.33;83.83
7532;BME280;3807;49.030;8.714;2022-11-20T09:29:08;98883.28;;;8.30;84.06
7532;BME280;3807;49.030;8.714;2022-11-20T09:31:33;98890.16;;;8.26;83.49
7532;BME280;3807;49.030;8.714;2022-11-20T09:33:58;98891.56;;;8.35;83.41
7532;BME280;3807;49.030;8.714;2022-11-20T09:36:24;98885.19;;;8.22;84.31
7532;BME280;3807;49.030;8.714;2022-11-20T09:38:49;98874.66;;;8.07;85.08
7532;BME280;3807;49.030;8.714;2022-11-20T09:47:37;98883.06;;;8.09;85.06
7532;BME280;3807;49.030;8.714;2022-11-20T09:55:24;98889.94;;;8.32;84.84
7532;BME280;3807;49.030;8.714;2022-11-20T09:57:51;98874.78;;;8.57;83.15
7532;BME280;3807;49.030;8.714;2022-11-20T10:00:18;98888.53;;;8.52;84.04
7532;BME280;3807;49.030;8.714;2022-11-20T10:02:55;98882.41;;;8.57;83.20
7532;BME280;3807;49.030;8.714;2022-11-20T10:08:17;98882.19;;;8.65;82.33
7532;BME280;3807;49.030;8.714;2022-11-20T10:10:47;98891.00;;;8.25;84.32
7532;BME280;3807;49.030;8.714;2022-11-20T10:16:16;98888.22;;;8.33;84.65
7532;BME280;3807;49.030;8.714;2022-11-20T10:19:07;98882.13;;;8.67;83.51
7532;BME280;3807;49.030;8.714;2022-11-20T10:30:15;98893.31;;;8.33;84.47
7532;BME280;3807;49.030;8.714;2022-11-20T10:32:43;98901.16;;;8.53;84.43
7532;BME280;3807;49.030;8.714;2022-11-20T10:37:43;98896.31;;;8.72;83.42
7532;BME280;3807;49.030;8.714;2022-11-20T10:42:53;98896.06;;;8.80;82.59
7532;BME280;3807;49.030;8.714;2022-11-20T10:47:50;98893.28;;;8.88;82.30
7532;BME280;3807;49.030;8.714;2022-11-20T10:50:20;98869.53;;;8.89;82.50
7532;BME280;3807;49.030;8.714;2022-11-20T10:58:16;98878.09;;;8.86;83.71
7532;BME280;3807;49.030;8.714;2022-11-20T11:00:47;98877.47;;;9.04;83.25
7532;BME280;3807;49.030;8.714;2022-11-20T11:03:30;98877.03;;;9.17;82.75
7532;BME280;3807;49.030;8.714;2022-11-20T11:09:19;98867.59;;;9.44;81.63
7532;BME280;3807;49.030;8.714;2022-11-20T11:11:46;98871.31;;;8.87;83.69
7532;BME280;3807;49.030;8.714;2022-11-20T11:14:14;98865.63;;;8.78;83.73
7532;BME280;3807;49.030;8.714;2022-11-20T11:19:15;98863.19;;;9.25;81.60
7532;BME280;3807;49.030;8.714;2022-11-20T11:21:50;98854.16;;;9.17;81.71
7532;BME280;3807;49.030;8.714;2022-11-20T11:24:29;98854.47;;;9.33;80.93
7532;BME280;3807;49.030;8.714;2022-11-20T11:27:00;98847.28;;;9.44;80.42
7532;BME280;3807;49.030;8.714;2022-11-20T11:29:31;98855.69;;;9.46;80.04
7532;BME280;3807;49.030;8.714;2022-11-20T11:32:27;98850.94;;;9.37;80.57
7532;BME280;3807;49.030;8.714;2022-11-20T11:35:00;98826.94;;;9.44;80.52
7532;BME280;3807;49.030;8.714;2022-11-20T11:37:33;98820.50;;;9.35;79.74
7532;BME280;3807;49.030;8.714;2022-11-20T11:40:00;98821.00;;;9.21;80.98
7532;BME280;3807;49.030;8.714;2022-11-20T11:42:27;98816.34;;;9.33;80.62
7532;BME280;3807;49.030;8.714;2022-11-20T11:44:54;98820.53;;;9.34;80.86
7532;BME280;3807;49.030;8.714;2022-11-20T11:47:33;98816.12;;;9.39;79.93
7532;BME280;3807;49.030;8.714;2022-11-20T11:50:27;98815.19;;;9.18;80.98
7532;BME280;3807;49.030;8.714;2022-11-20T11:52:58;98818.56;;;9.42;80.99
7532;BME280;3807;49.030;8.714;2022-11-20T11:55:30;98801.28;;;9.28;81.46
7532;BME280;3807;49.030;8.714;2022-11-20T12:00:39;98801.38;;;9.25;81.29
7532;BME280;3807;49.030;8.714;2022-11-20T12:03:14;98801.50;;;9.22;81.25
7532;BME280;3807;49.030;8.714;2022-11-20T12:05:47;98802.25;;;9.24;80.73
7532;BME280;3807;49.030;8.714;2022-11-20T12:08:24;98792.09;;;9.24;80.53
7532;BME280;3807;49.030;8.714;2022-11-20T12:13:45;98792.50;;;9.59;79.08
7532;BME280;3807;49.030;8.714;2022-11-20T12:16:14;98789.81;;;9.40;79.92
7532;BME280;3807;49.030;8.714;2022-11-20T12:18:43;98781.31;;;9.41;79.50
7532;BME280;3807;49.030;8.714;2022-11-20T12:21:18;98790.75;;;9.37;80.02
7532;BME280;3807;49.030;8.714;2022-11-20T12:24:20;98788.81;;;9.44;79.91
7532;BME280;3807;49.030;8.714;2022-11-20T12:30:00;98784.53;;;9.46;79.74
7532;BME280;3807;49.030;8.714;2022-11-20T12:43:23;98785.16;;;9.51;78.57
7532;BME280;3807;49.030;8.714;2022-11-20T12:46:58;98783.00;;;9.42;78.99
7532;BME280;3807;49.030;8.714;2022-11-20T12:49:38;98778.44;;;9.50;78.33
7532;BME280;3807;49.030;8.714;2022-11-20T12:52:24;98791.44;;;9.42;78.06
7532;BME280;3807;49.030;8.714;2022-11-20T12:58:23;98788.31;;;9.58;77.73
7532;BME280;3807;49.030;8.714;2022-11-20T13:00:56;98785.44;;;9.67;77.93
7532;BME280;3807;49.030;8.714;2022-11-20T13:06:16;98786.72;;;9.77;77.26
7532;BME280;3807;49.030;8.714;2022-11-20T13:08:52;98786.94;;;9.93;77.91
7532;BME280;3807;49.030;8.714;2022-11-20T13:11:36;98778.31;;;9.75;76.60
7532;BME280;3807;49.030;8.714;2022-11-20T13:16:50;98769.25;;;9.90;75.87
7532;BME280;3807;49.030;8.714;2022-11-20T13:19:17;98775.59;;;9.79;74.54
7532;BME280;3807;49.030;8.714;2022-11-20T13:21:45;98774.84;;;9.56;75.38
7532;BME280;3807;49.030;8.714;2022-11-20T13:27:20;98759.41;;;9.38;75.14
7532;BME280;3807;49.030;8.714;2022-11-20T13:30:13;98761.06;;;9.39;74.71
7532;BME280;3807;49.030;8.714;2022-11-20T13:32:56;98757.25;;;9.27;75.51
7532;BME280;3807;49.030;8.714;2022-11-20T13:35:34;98748.47;;;9.36;74.95
7532;BME280;3807;49.030;8.714;2022-11-20T13:40:27;98747.22;;;9.46;74.29
7532;BME280;3807;49.030;8.714;2022-11-20T13:43:10;98748.78;;;9.27;74.76
7532;BME280;3807;49.030;8.714;2022-11-20T13:45:40;98753.72;;;9.32;74.39
7532;BME280;3807;49.030;8.714;2022-11-20T13:48:24;98748.97;;;9.22;75.53
7532;BME280;3807;49.030;8.714;2022-11-20T13:51:42;98744.47;;;9.07;73.98
7532;BME280;3807;49.030;8.714;2022-11-20T13:56:59;98740.72;;;9.39;74.19
7532;BME280;3807;49.030;8.714;2022-11-20T14:02:13;98741.81;;;9.56;73.90
7532;BME280;3807;49.030;8.714;2022-11-20T14:04:43;98741.84;;;9.54;72.96
7532;BME280;3807;49.030;8.714;2022-11-20T14:07:10;98733.91;;;9.40;75.07
7532;BME280;3807;49.030;8.714;2022-11-20T14:09:36;98738.91;;;9.19;72.79
7532;BME280;3807;49.030;8.714;2022-11-20T14:12:03;98728.25;;;9.33;74.81
7532;BME280;3807;49.030;8.714;2022-11-20T14:14:30;98738.28;;;9.36;74.46
7532;BME280;3807;49.030;8.714;2022-11-20T14:17:15;98736.19;;;9.24;73.98
7532;BME280;3807;49.030;8.714;2022-11-20T14:19:43;98730.75;;;9.35;74.27
7532;BME280;3807;49.030;8.714;2022-11-20T14:22:17;98730.34;;;9.45;73.76
7532;BME280;3807;49.030;8.714;2022-11-20T14:24:47;98725.12;;;9.70;73.67
7532;BME280;3807;49.030;8.714;2022-11-20T14:27:14;98734.16;;;9.77;73.19
7532;BME280;3807;49.030;8.714;2022-11-20T14:29:41;98733.81;;;9.43;72.72
7532;BME280;3807;49.030;8.714;2022-11-20T14:32:09;98726.00;;;9.47;74.20
7532;BME280;3807;49.030;8.714;2022-11-20T14:34:38;98728.25;;;9.77;71.23
7532;BME280;3807;49.030;8.714;2022-11-20T14:37:09;98722.41;;;9.53;72.29
7532;BME280;3807;49.030;8.714;2022-11-20T14:39:37;98721.47;;;9.76;71.96
7532;BME280;3807;49.030;8.714;2022-11-20T14:42:14;98716.41;;;9.76;71.88
7532;BME280;3807;49.030;8.714;2022-11-20T14:44:41;98703.41;;;9.62;72.68
7532;BME280;3807;49.030;8.714;2022-11-20T14:47:08;98713.00;;;9.77;71.18
7532;BME280;3807;49.030;8.714;2022-11-20T14:49:36;98711.50;;;9.71;71.70
7532;BME280;3807;49.030;8.714;2022-11-20T14:52:16;98712.56;;;9.88;71.87
7532;BME280;3807;49.030;8.714;2022-11-20T14:54:50;98708.06;;;10.15;70.94
7532;BME280;3807;49.030;8.714;2022-11-20T14:57:35;98699.22;;;10.03;71.37
7532;BME280;3807;49.030;8.714;2022-11-20T15:02:43;98696.91;;;9.54;72.24
7532;BME280;3807;49.030;8.714;2022-11-20T15:05:08;98700.88;;;9.62;71.65
7532;BME280;3807;49.030;8.714;2022-11-20T15:07:47;98685.28;;;9.49;71.84
7532;BME280;3807;49.030;8.714;2022-11-20T15:10:20;98687.59;;;9.75;70.56
7532;BME280;3807;49.030;8.714;2022-11-20T15:12:49;98684.78;;;9.61;71.57